Time,TemperatureF,DewpointF,PressureIn,WindDirection,WindDirectionDegrees,WindSpeedMPH,WindSpeedGustMPH,Humidity,HourlyPrecipIn,Conditions,Clouds,dailyrainin,SoftwareType,DateUTC
2013-08-11 00:01:00,67.1,55.8,30.25,NE,48,0.0,0.0,67,0.00,,,0.00,VWS V14.00,2013-08-11 04:01:00,
2013-08-11 00:02:00,66.9,56.0,30.25,NE,48,0.0,0.0,68,0.00,,,0.00,VWS V14.00,2013-08-11 04:02:00,
2013-08-11 00:04:00,66.9,56.0,30.25,NE,48,0.0,0.0,68,0.00,,,0.00,VWS V14.00,2013-08-11 04:04:00,
2013-08-11 00:05:00,66.9,56.0,30.25,NE,48,0.0,0.0,68,0.00,,,0.00,VWS V14.00,2013-08-11 04:05:00,
2013-08-11 00:07:00,66.9,56.4,30.25,NE,48,0.0,0.0,69,0.00,,,0.00,VWS V14.00,2013-08-11 04:07:00,
2013-08-11 00:13:00,66.9,56.4,30.25,NE,48,0.0,0.0,69,0.00,,,0.00,VWS V14.00,2013-08-11 04:13:00,
2013-08-11 00:19:00,66.9,56.8,30.25,NE,48,0.0,0.0,70,0.00,,,0.00,VWS V14.00,2013-08-11 04:19:00,
2013-08-11 00:24:00,66.7,56.7,30.25,NE,48,0.0,0.0,70,0.00,,,0.00,VWS V14.00,2013-08-11 04:24:00,
2013-08-11 00:29:00,66.7,56.7,30.25,NE,48,0.0,0.0,70,0.00,,,0.00,VWS V14.00,2013-08-11 04:29:00,
2013-08-11 00:34:00,66.7,56.7,30.25,NE,48,0.0,0.0,70,0.00,,,0.00,VWS V14.00,2013-08-11 04:34:00,
2013-08-11 00:40:00,66.7,56.7,30.25,NE,48,0.0,0.0,70,0.00,,,0.00,VWS V14.00,2013-08-11 04:40:00,
2013-08-11 00:45:00,66.7,56.7,30.25,NE,48,0.0,0.0,70,0.00,,,0.00,VWS V14.00,2013-08-11 04:45:00,
2013-08-11 00:51:00,66.7,56.7,30.25,NE,48,0.0,0.0,70,0.00,,,0.00,VWS V14.00,2013-08-11 04:51:00,
2013-08-11 00:56:00,66.7,56.7,30.25,NE,48,0.0,0.0,70,0.00,,,0.00,VWS V14.00,2013-08-11 04:56:00,
2013-08-11 01:02:00,66.6,56.9,30.25,NE,48,0.0,0.0,71,0.00,,,0.00,VWS V14.00,2013-08-11 05:02:00,
2013-08-11 01:08:00,66.4,56.7,30.25,NE,48,0.0,0.0,71,0.00,,,0.00,VWS V14.00,2013-08-11 05:08:00,
2013-08-11 01:13:00,66.4,56.7,30.25,NE,48,0.0,0.0,71,0.00,,,0.00,VWS V14.00,2013-08-11 05:13:00,
2013-08-11 01:19:00,66.2,56.5,30.25,NE,48,0.0,0.0,71,0.00,,,0.00,VWS V14.00,2013-08-11 05:19:00,
2013-08-11 01:24:00,65.8,56.6,30.25,NE,48,0.0,0.0,72,0.00,,,0.00,VWS V14.00,2013-08-11 05:24:00,
2013-08-11 01:29:00,65.8,56.6,30.25,NE,48,0.0,0.0,72,0.00,,,0.00,VWS V14.00,2013-08-11 05:29:00,
2013-08-11 01:34:00,65.5,56.2,30.25,NE,48,0.0,0.0,72,0.00,,,0.00,VWS V14.00,2013-08-11 05:34:00,
2013-08-11 01:40:00,65.5,56.2,30.25,NE,48,0.0,0.0,72,0.00,,,0.00,VWS V14.00,2013-08-11 05:40:00,
2013-08-11 01:45:00,65.3,56.4,30.25,NE,48,0.0,0.0,73,0.00,,,0.00,VWS V14.00,2013-08-11 05:45:00,
2013-08-11 01:51:00,64.8,55.9,30.25,NE,48,0.0,0.0,73,0.00,,,0.00,VWS V14.00,2013-08-11 05:51:00,
2013-08-11 01:57:00,64.8,55.9,30.25,NE,48,0.0,0.0,73,0.00,,,0.00,VWS V14.00,2013-08-11 05:57:00,
2013-08-11 02:02:00,64.8,55.9,30.25,NE,48,0.0,0.0,73,0.00,,,0.00,VWS V14.00,2013-08-11 06:02:00,
2013-08-11 02:07:00,64.2,55.8,30.25,NE,48,0.0,0.0,74,0.00,,,0.00,VWS V14.00,2013-08-11 06:07:00,
2013-08-11 02:14:00,64.2,55.8,30.25,NE,48,0.0,0.0,74,0.00,,,0.00,VWS V14.00,2013-08-11 06:14:00,
2013-08-11 02:20:00,63.7,55.6,30.25,NE,48,0.0,0.0,75,0.00,,,0.00,VWS V14.00,2013-08-11 06:20:00,
2013-08-11 02:25:00,63.5,55.4,30.25,NE,48,0.0,0.0,75,0.00,,,0.00,VWS V14.00,2013-08-11 06:25:00,
2013-08-11 02:30:00,63.5,55.4,30.25,NE,48,0.0,0.0,75,0.00,,,0.00,VWS V14.00,2013-08-11 06:30:00,
2013-08-11 02:35:00,63.1,55.5,30.25,NE,48,0.0,0.0,76,0.00,,,0.00,VWS V14.00,2013-08-11 06:35:00,
2013-08-11 02:40:00,63.1,55.5,30.25,NE,48,0.0,0.0,76,0.00,,,0.00,VWS V14.00,2013-08-11 06:40:00,
2013-08-11 02:45:00,63.0,55.7,30.25,NE,48,0.0,0.0,77,0.00,,,0.00,VWS V14.00,2013-08-11 06:45:00,
2013-08-11 02:50:00,63.0,55.7,30.25,NE,48,0.0,0.0,77,0.00,,,0.00,VWS V14.00,2013-08-11 06:50:00,
2013-08-11 02:55:00,63.0,56.0,30.25,NE,48,0.0,0.0,78,0.00,,,0.00,VWS V14.00,2013-08-11 06:55:00,
2013-08-11 03:02:00,62.8,55.8,30.25,NE,48,0.0,0.0,78,0.00,,,0.00,VWS V14.00,2013-08-11 07:02:00,
2013-08-11 03:07:00,62.8,56.2,30.25,NE,48,0.0,0.0,79,0.00,,,0.00,VWS V14.00,2013-08-11 07:07:00,
2013-08-11 03:14:00,62.8,56.2,30.25,NE,48,0.0,0.0,79,0.00,,,0.00,VWS V14.00,2013-08-11 07:14:00,
2013-08-11 03:20:00,62.8,56.2,30.25,NE,48,0.0,0.0,79,0.00,,,0.00,VWS V14.00,2013-08-11 07:20:00,
2013-08-11 03:26:00,62.8,56.2,30.25,NE,48,0.0,0.0,79,0.00,,,0.00,VWS V14.00,2013-08-11 07:26:00,
2013-08-11 03:32:00,63.0,56.3,30.25,NE,48,0.0,0.0,79,0.00,,,0.00,VWS V14.00,2013-08-11 07:32:00,
2013-08-11 03:37:00,63.0,56.3,30.25,NE,48,0.0,0.0,79,0.00,,,0.00,VWS V14.00,2013-08-11 07:37:00,
2013-08-11 03:43:00,63.0,56.3,30.25,NE,48,0.0,0.0,79,0.00,,,0.00,VWS V14.00,2013-08-11 07:43:00,
2013-08-11 03:48:00,63.0,56.7,30.25,NE,48,0.0,0.0,80,0.00,,,0.00,VWS V14.00,2013-08-11 07:48:00,
2013-08-11 03:53:00,63.0,56.7,30.25,NE,48,0.0,0.0,80,0.00,,,0.00,VWS V14.00,2013-08-11 07:53:00,
2013-08-11 03:58:00,63.0,56.7,30.25,NE,48,0.0,0.0,80,0.00,,,0.00,VWS V14.00,2013-08-11 07:58:00,
2013-08-11 04:04:00,63.0,57.0,30.25,NE,48,0.0,0.0,81,0.00,,,0.00,VWS V14.00,2013-08-11 08:04:00,
2013-08-11 04:11:00,63.1,57.2,30.25,NE,48,0.0,0.0,81,0.00,,,0.00,VWS V14.00,2013-08-11 08:11:00,
2013-08-11 04:17:00,63.1,57.2,30.25,NE,48,0.0,0.0,81,0.00,,,0.00,VWS V14.00,2013-08-11 08:17:00,
2013-08-11 04:22:00,63.1,57.6,30.25,NE,48,0.0,0.0,82,0.00,,,0.00,VWS V14.00,2013-08-11 08:22:00,
2013-08-11 04:28:00,63.1,57.6,30.25,NE,48,0.0,0.0,82,0.00,,,0.00,VWS V14.00,2013-08-11 08:28:00,
2013-08-11 04:34:00,63.3,57.7,30.25,NE,48,0.0,0.0,82,0.00,,,0.00,VWS V14.00,2013-08-11 08:34:00,
2013-08-11 04:39:00,63.3,57.7,30.25,NE,48,0.0,0.0,82,0.00,,,0.00,VWS V14.00,2013-08-11 08:39:00,
2013-08-11 04:45:00,63.3,57.7,30.25,NE,48,0.0,0.0,82,0.00,,,0.00,VWS V14.00,2013-08-11 08:45:00,
2013-08-11 04:50:00,63.3,57.7,30.25,NE,48,0.0,0.0,82,0.00,,,0.00,VWS V14.00,2013-08-11 08:50:00,
2013-08-11 04:56:00,63.3,57.7,30.25,NE,48,0.0,0.0,82,0.00,,,0.00,VWS V14.00,2013-08-11 08:56:00,
2013-08-11 05:02:00,63.3,58.1,30.25,NE,48,0.0,0.0,83,0.00,,,0.00,VWS V14.00,2013-08-11 09:02:00,
2013-08-11 05:08:00,63.5,58.2,30.25,NE,48,0.0,0.0,83,0.00,,,0.00,VWS V14.00,2013-08-11 09:08:00,
2013-08-11 05:13:00,63.5,58.2,30.25,NE,48,0.0,0.0,83,0.00,,,0.00,VWS V14.00,2013-08-11 09:13:00,
2013-08-11 05:18:00,63.5,58.2,30.25,NE,48,0.0,0.0,83,0.00,,,0.00,VWS V14.00,2013-08-11 09:18:00,
2013-08-11 05:24:00,63.3,57.7,30.25,NE,48,0.0,0.0,82,0.00,,,0.00,VWS V14.00,2013-08-11 09:24:00,
2013-08-11 05:29:00,63.3,57.7,30.25,NE,48,0.0,0.0,82,0.00,,,0.00,VWS V14.00,2013-08-11 09:29:00,
2013-08-11 05:35:00,63.3,57.4,30.25,NE,48,0.0,0.0,81,0.00,,,0.00,VWS V14.00,2013-08-11 09:35:00,
2013-08-11 05:41:00,63.3,57.4,30.25,NE,48,0.0,0.0,81,0.00,,,0.00,VWS V14.00,2013-08-11 09:41:00,
2013-08-11 05:47:00,63.3,57.4,30.25,NE,48,0.0,0.0,81,0.00,,,0.00,VWS V14.00,2013-08-11 09:47:00,
2013-08-11 05:52:00,63.3,57.4,30.25,NE,48,0.0,0.0,81,0.00,,,0.00,VWS V14.00,2013-08-11 09:52:00,
2013-08-11 05:57:00,63.3,57.4,30.25,NE,48,0.0,0.0,81,0.00,,,0.00,VWS V14.00,2013-08-11 09:57:00,
2013-08-11 06:03:00,63.1,57.2,30.25,NE,48,0.0,0.0,81,0.00,,,0.00,VWS V14.00,2013-08-11 10:03:00,
2013-08-11 06:09:00,63.1,57.2,30.25,NE,48,0.0,0.0,81,0.00,,,0.00,VWS V14.00,2013-08-11 10:09:00,
2013-08-11 06:14:00,63.1,57.2,30.25,NE,48,0.0,0.0,81,0.00,,,0.00,VWS V14.00,2013-08-11 10:14:00,
2013-08-11 06:20:00,62.6,56.3,30.25,NE,48,0.0,0.0,80,0.00,,,0.00,VWS V14.00,2013-08-11 10:20:00,
2013-08-11 06:25:00,62.4,56.5,30.25,NE,48,0.0,0.0,81,0.00,,,0.00,VWS V14.00,2013-08-11 10:25:00,
2013-08-11 06:30:00,62.2,56.3,30.25,NE,48,0.0,0.0,81,0.00,,,0.00,VWS V14.00,2013-08-11 10:30:00,
2013-08-11 06:35:00,62.2,56.3,30.25,NE,48,0.0,0.0,81,0.00,,,0.00,VWS V14.00,2013-08-11 10:35:00,
2013-08-11 06:43:00,61.5,55.3,30.25,NE,48,0.0,0.0,80,0.00,,,0.00,VWS V14.00,2013-08-11 10:43:00,
2013-08-11 06:49:00,61.3,55.1,30.25,NE,48,0.0,0.0,80,0.00,,,0.00,VWS V14.00,2013-08-11 10:49:00,
2013-08-11 06:54:00,61.2,55.3,30.25,NE,48,0.0,0.0,81,0.00,,,0.00,VWS V14.00,2013-08-11 10:54:00,
2013-08-11 06:59:00,60.8,54.9,30.25,NE,48,0.0,0.0,81,0.00,,,0.00,VWS V14.00,2013-08-11 10:59:00,
2013-08-11 07:04:00,60.8,54.9,30.25,NE,48,0.0,0.0,81,0.00,,,0.00,VWS V14.00,2013-08-11 11:04:00,
2013-08-11 07:10:00,60.4,54.9,30.25,NE,48,0.0,0.0,82,0.00,,,0.00,VWS V14.00,2013-08-11 11:10:00,
2013-08-11 07:16:00,60.3,54.8,30.25,NE,48,0.0,0.0,82,0.00,,,0.00,VWS V14.00,2013-08-11 11:16:00,
2013-08-11 07:21:00,60.3,54.8,30.25,NE,48,0.0,0.0,82,0.00,,,0.00,VWS V14.00,2013-08-11 11:21:00,
2013-08-11 07:27:00,60.1,54.9,30.25,NE,48,0.0,0.0,83,0.00,,,0.00,VWS V14.00,2013-08-11 11:27:00,
2013-08-11 07:32:00,60.1,54.9,30.25,NE,48,0.0,0.0,83,0.00,,,0.00,VWS V14.00,2013-08-11 11:32:00,
2013-08-11 07:38:00,60.1,55.2,30.25,NE,48,0.0,0.0,84,0.00,,,0.00,VWS V14.00,2013-08-11 11:38:00,
2013-08-11 07:44:00,60.1,55.2,30.25,NE,48,0.0,0.0,84,0.00,,,0.00,VWS V14.00,2013-08-11 11:44:00,
2013-08-11 07:50:00,60.1,55.6,30.25,NE,48,0.0,0.0,85,0.00,,,0.00,VWS V14.00,2013-08-11 11:50:00,
2013-08-11 07:55:00,60.1,55.6,30.25,NE,48,0.0,0.0,85,0.00,,,0.00,VWS V14.00,2013-08-11 11:55:00,
2013-08-11 08:01:00,60.4,55.9,30.25,NE,48,0.0,0.0,85,0.00,,,0.00,VWS V14.00,2013-08-11 12:01:00,
2013-08-11 08:06:00,60.4,56.2,30.25,NE,48,0.0,0.0,86,0.00,,,0.00,VWS V14.00,2013-08-11 12:06:00,
2013-08-11 08:13:00,60.8,56.6,30.25,NE,48,0.0,0.0,86,0.00,,,0.00,VWS V14.00,2013-08-11 12:13:00,
2013-08-11 08:20:00,61.0,56.8,30.25,NE,48,0.0,0.0,86,0.00,,,0.00,VWS V14.00,2013-08-11 12:20:00,
2013-08-11 08:26:00,61.3,57.1,30.25,NE,48,0.0,0.0,86,0.00,,,0.00,VWS V14.00,2013-08-11 12:26:00,
2013-08-11 08:32:00,61.3,57.1,30.25,NE,48,0.0,0.0,86,0.00,,,0.00,VWS V14.00,2013-08-11 12:32:00,
2013-08-11 08:37:00,61.9,57.3,30.25,NE,48,0.0,0.0,85,0.00,,,0.00,VWS V14.00,2013-08-11 12:37:00,
2013-08-11 08:43:00,62.2,57.7,30.25,NE,48,0.0,0.0,85,0.00,,,0.00,VWS V14.00,2013-08-11 12:43:00,
2013-08-11 08:48:00,62.2,57.7,30.25,NE,48,0.0,0.0,85,0.00,,,0.00,VWS V14.00,2013-08-11 12:48:00,
2013-08-11 08:54:00,62.8,57.5,30.25,NE,48,0.0,0.0,83,0.00,,,0.00,VWS V14.00,2013-08-11 12:54:00,
2013-08-11 08:59:00,63.3,57.7,30.25,NE,48,0.0,0.0,82,0.00,,,0.00,VWS V14.00,2013-08-11 12:59:00,
2013-08-11 09:06:00,63.5,57.6,30.25,NE,48,0.0,0.0,81,0.00,,,0.00,VWS V14.00,2013-08-11 13:06:00,
2013-08-11 09:11:00,63.9,57.9,30.25,NE,48,0.0,0.0,81,0.00,,,0.00,VWS V14.00,2013-08-11 13:11:00,
2013-08-11 09:16:00,63.9,57.9,30.25,NE,48,0.0,0.0,81,0.00,,,0.00,VWS V14.00,2013-08-11 13:16:00,
2013-08-11 09:22:00,64.8,57.8,30.25,NE,48,0.0,0.0,78,0.00,,,0.00,VWS V14.00,2013-08-11 13:22:00,
2013-08-11 09:27:00,65.1,57.4,30.25,NE,48,0.0,0.0,76,0.00,,,0.00,VWS V14.00,2013-08-11 13:27:00,
2013-08-11 09:34:00,65.5,56.6,30.25,NE,48,0.0,0.0,73,0.00,,,0.00,VWS V14.00,2013-08-11 13:34:00,
2013-08-11 09:42:00,65.8,56.6,30.25,NE,48,2.2,2.2,72,0.00,,,0.00,VWS V14.00,2013-08-11 13:42:00,
2013-08-11 09:47:00,66.2,56.1,30.25,NE,48,0.0,0.0,70,0.00,,,0.00,VWS V14.00,2013-08-11 13:47:00,
2013-08-11 09:53:00,66.2,56.1,30.25,NE,48,0.0,0.0,70,0.00,,,0.00,VWS V14.00,2013-08-11 13:53:00,
2013-08-11 09:58:00,66.7,55.8,30.25,NNE,21,3.1,3.1,68,0.00,,,0.00,VWS V14.00,2013-08-11 13:58:00,
2013-08-11 10:04:00,66.9,55.6,30.25,North,11,0.0,0.0,67,0.00,,,0.00,VWS V14.00,2013-08-11 14:04:00,
2013-08-11 10:10:00,67.3,54.7,30.25,NW,321,0.0,0.0,64,0.00,,,0.00,VWS V14.00,2013-08-11 14:10:00,
2013-08-11 10:16:00,67.6,54.2,30.25,North,357,0.0,0.0,62,0.00,,,0.00,VWS V14.00,2013-08-11 14:16:00,
2013-08-11 10:22:00,67.8,53.4,30.25,NNE,12,3.1,3.1,60,0.00,,,0.00,VWS V14.00,2013-08-11 14:22:00,
2013-08-11 10:28:00,68.0,53.2,30.25,NNW,345,0.0,0.0,59,0.00,,,0.00,VWS V14.00,2013-08-11 14:28:00,
2013-08-11 10:33:00,68.5,52.7,30.25,NNW,328,3.6,3.6,57,0.00,,,0.00,VWS V14.00,2013-08-11 14:33:00,
2013-08-11 10:38:00,68.7,52.4,30.25,North,11,3.1,3.1,56,0.00,,,0.00,VWS V14.00,2013-08-11 14:38:00,
2013-08-11 10:43:00,68.7,52.4,30.25,NNE,14,0.0,0.0,56,0.00,,,0.00,VWS V14.00,2013-08-11 14:43:00,
2013-08-11 10:48:00,69.1,52.2,30.25,North,357,2.2,3.1,55,0.00,,,0.00,VWS V14.00,2013-08-11 14:48:00,
2013-08-11 10:54:00,69.3,52.4,30.25,North,3,4.9,5.4,55,0.00,,,0.00,VWS V14.00,2013-08-11 14:54:00,
2013-08-11 11:00:00,69.4,52.1,30.25,North,3,4.9,4.9,54,0.00,,,0.00,VWS V14.00,2013-08-11 15:00:00,
2013-08-11 11:05:00,69.8,52.4,30.25,North,7,4.0,4.0,54,0.00,,,0.00,VWS V14.00,2013-08-11 15:05:00,
2013-08-11 11:11:00,70.0,52.1,30.25,NNE,14,2.7,2.7,53,0.00,,,0.00,VWS V14.00,2013-08-11 15:11:00,
2013-08-11 11:16:00,70.5,52.6,30.25,North,6,3.1,3.1,53,0.00,,,0.00,VWS V14.00,2013-08-11 15:16:00,
2013-08-11 11:22:00,70.7,52.8,30.25,North,357,6.3,6.3,53,0.00,,,0.00,VWS V14.00,2013-08-11 15:22:00,
2013-08-11 11:29:00,71.2,53.2,30.25,NNW,333,0.0,2.2,53,0.00,,,0.00,VWS V14.00,2013-08-11 15:29:00,
2013-08-11 11:35:00,71.6,53.6,30.25,North,2,3.6,3.6,53,0.00,,,0.00,VWS V14.00,2013-08-11 15:35:00,
2013-08-11 11:41:00,71.6,53.6,30.25,North,9,4.0,4.0,53,0.00,,,0.00,VWS V14.00,2013-08-11 15:41:00,
2013-08-11 11:48:00,72.3,51.5,30.25,West,276,0.0,2.2,48,0.00,,,0.00,VWS V14.00,2013-08-11 15:48:00,
2013-08-11 11:53:00,72.9,52.0,30.25,NNW,341,3.6,3.6,48,0.00,,,0.00,VWS V14.00,2013-08-11 15:53:00,
2013-08-11 11:59:00,73.2,52.4,30.25,NNE,30,4.0,4.0,48,0.00,,,0.00,VWS V14.00,2013-08-11 15:59:00,
2013-08-11 12:06:00,73.8,52.3,30.25,North,353,4.0,4.0,47,0.00,,,0.00,VWS V14.00,2013-08-11 16:06:00,
2013-08-11 12:11:00,73.8,51.1,30.25,WNW,303,2.2,2.2,45,0.00,,,0.00,VWS V14.00,2013-08-11 16:11:00,
2013-08-11 12:16:00,73.9,51.3,30.25,WSW,247,0.0,2.7,45,0.00,,,0.00,VWS V14.00,2013-08-11 16:16:00,
2013-08-11 12:21:00,74.5,51.8,30.25,WSW,247,3.6,3.6,45,0.00,,,0.00,VWS V14.00,2013-08-11 16:21:00,
2013-08-11 12:28:00,74.8,52.1,30.25,NE,34,2.7,2.7,45,0.00,,,0.00,VWS V14.00,2013-08-11 16:28:00,
2013-08-11 12:35:00,75.0,52.3,30.25,NNE,22,4.0,4.0,45,0.00,,,0.00,VWS V14.00,2013-08-11 16:35:00,
2013-08-11 12:40:00,75.0,51.7,30.25,WNW,287,2.7,4.0,44,0.00,,,0.00,VWS V14.00,2013-08-11 16:40:00,
2013-08-11 12:46:00,75.2,51.8,30.25,NW,323,2.7,2.7,44,0.00,,,0.00,VWS V14.00,2013-08-11 16:46:00,
2013-08-11 12:51:00,75.6,51.5,30.25,WNW,300,3.1,3.1,43,0.00,,,0.00,VWS V14.00,2013-08-11 16:51:00,
2013-08-11 12:56:00,75.7,51.7,30.25,NNW,327,3.1,3.1,43,0.00,,,0.00,VWS V14.00,2013-08-11 16:56:00,
2013-08-11 13:02:00,76.5,52.3,30.25,WSW,241,3.1,3.1,43,0.00,,,0.00,VWS V14.00,2013-08-11 17:02:00,
2013-08-11 13:07:00,76.8,51.4,30.25,WSW,246,2.7,2.7,41,0.00,,,0.00,VWS V14.00,2013-08-11 17:07:00,
2013-08-11 13:12:00,77.2,51.7,30.25,WNW,283,4.0,4.0,41,0.00,,,0.00,VWS V14.00,2013-08-11 17:12:00,
2013-08-11 13:17:00,77.9,52.3,30.25,SW,214,3.6,3.6,41,0.00,,,0.00,VWS V14.00,2013-08-11 17:17:00,
2013-08-11 13:24:00,78.6,51.6,30.25,WNW,289,3.6,3.6,39,0.00,,,0.00,VWS V14.00,2013-08-11 17:24:00,
2013-08-11 13:30:00,78.6,51.6,30.25,West,268,0.0,2.7,39,0.00,,,0.00,VWS V14.00,2013-08-11 17:30:00,
2013-08-11 13:35:00,78.6,51.6,30.25,North,10,5.4,5.4,39,0.00,,,0.00,VWS V14.00,2013-08-11 17:35:00,
2013-08-11 13:40:00,79.0,51.2,30.25,North,353,3.6,5.8,38,0.00,,,0.00,VWS V14.00,2013-08-11 17:40:00,
2013-08-11 13:45:00,79.5,52.4,30.25,SW,233,2.7,2.7,39,0.00,,,0.00,VWS V14.00,2013-08-11 17:45:00,
2013-08-11 13:50:00,79.5,51.0,30.25,North,2,3.6,5.8,37,0.00,,,0.00,VWS V14.00,2013-08-11 17:50:00,
2013-08-11 13:56:00,79.2,50.7,30.25,NNW,344,3.6,4.0,37,0.00,,,0.00,VWS V14.00,2013-08-11 17:56:00,
2013-08-11 14:02:00,78.8,49.6,30.25,NNW,341,2.7,2.7,36,0.00,,,0.00,VWS V14.00,2013-08-11 18:02:00,
2013-08-11 14:08:00,79.0,49.8,30.25,SW,215,4.0,4.9,36,0.00,,,0.00,VWS V14.00,2013-08-11 18:08:00,
2013-08-11 14:13:00,79.5,51.0,30.25,NW,326,4.0,4.0,37,0.00,,,0.00,VWS V14.00,2013-08-11 18:13:00,
2013-08-11 14:18:00,80.1,51.5,30.25,NNW,334,3.6,3.6,37,0.00,,,0.00,VWS V14.00,2013-08-11 18:18:00,
2013-08-11 14:23:00,80.8,51.4,30.25,West,272,6.3,6.3,36,0.00,,,0.00,VWS V14.00,2013-08-11 18:23:00,
2013-08-11 14:28:00,81.1,51.7,30.25,West,266,4.9,4.9,36,0.00,,,0.00,VWS V14.00,2013-08-11 18:28:00,
2013-08-11 14:34:00,81.1,49.3,30.25,SW,215,6.3,6.3,33,0.00,,,0.00,VWS V14.00,2013-08-11 18:34:00,
2013-08-11 14:39:00,80.6,48.9,30.25,NW,316,5.8,5.8,33,0.00,,,0.00,VWS V14.00,2013-08-11 18:39:00,
2013-08-11 14:44:00,79.9,49.0,30.25,SSE,165,3.6,3.6,34,0.00,,,0.00,VWS V14.00,2013-08-11 18:44:00,
2013-08-11 14:50:00,79.0,49.0,30.25,North,353,3.6,3.6,35,0.00,,,0.00,VWS V14.00,2013-08-11 18:50:00,
2013-08-11 14:56:00,78.3,49.1,30.25,West,268,2.7,2.7,36,0.00,,,0.00,VWS V14.00,2013-08-11 18:56:00,
2013-08-11 15:01:00,77.7,48.7,30.25,North,1,2.7,5.4,36,0.00,,,0.00,VWS V14.00,2013-08-11 19:01:00,
2013-08-11 15:06:00,77.4,49.1,30.25,NNW,332,3.6,3.6,37,0.00,,,0.00,VWS V14.00,2013-08-11 19:06:00,
2013-08-11 15:12:00,77.2,50.3,30.25,West,272,3.1,3.6,39,0.00,,,0.00,VWS V14.00,2013-08-11 19:12:00,
2013-08-11 15:18:00,76.8,51.4,30.25,North,2,6.7,6.7,41,0.00,,,0.00,VWS V14.00,2013-08-11 19:18:00,
2013-08-11 15:24:00,76.6,51.2,30.25,NNW,344,5.4,5.4,41,0.00,,,0.00,VWS V14.00,2013-08-11 19:24:00,
2013-08-11 15:29:00,76.3,51.5,30.25,NNW,335,5.8,5.8,42,0.00,,,0.00,VWS V14.00,2013-08-11 19:29:00,
2013-08-11 15:34:00,76.3,52.2,30.25,SW,233,3.1,3.1,43,0.00,,,0.00,VWS V14.00,2013-08-11 19:34:00,
2013-08-11 15:40:00,76.3,52.2,30.25,WSW,245,6.3,6.3,43,0.00,,,0.00,VWS V14.00,2013-08-11 19:40:00,
2013-08-11 15:46:00,75.9,51.8,30.25,WSW,237,3.6,3.6,43,0.00,,,0.00,VWS V14.00,2013-08-11 19:46:00,
2013-08-11 15:51:00,75.6,50.9,30.25,WNW,286,2.7,3.6,42,0.00,,,0.00,VWS V14.00,2013-08-11 19:51:00,
2013-08-11 15:56:00,75.2,50.6,30.25,NW,306,4.0,4.0,42,0.00,,,0.00,VWS V14.00,2013-08-11 19:56:00,
2013-08-11 16:01:00,75.0,51.0,30.25,SW,233,2.2,2.2,43,0.00,,,0.00,VWS V14.00,2013-08-11 20:01:00,
2013-08-11 16:06:00,74.8,51.5,30.25,SSW,205,3.6,3.6,44,0.00,,,0.00,VWS V14.00,2013-08-11 20:06:00,
2013-08-11 16:13:00,74.7,51.3,30.25,West,267,3.1,3.1,44,0.00,,,0.00,VWS V14.00,2013-08-11 20:13:00,
2013-08-11 16:19:00,74.3,51.6,30.25,SW,225,4.9,4.9,45,0.00,,,0.00,VWS V14.00,2013-08-11 20:19:00,
2013-08-11 16:25:00,74.1,51.4,30.25,WSW,257,3.1,3.1,45,0.00,,,0.00,VWS V14.00,2013-08-11 20:25:00,
2013-08-11 16:30:00,73.9,51.3,30.25,SSW,213,2.7,3.1,45,0.00,,,0.00,VWS V14.00,2013-08-11 20:30:00,
2013-08-11 16:36:00,73.9,51.3,30.25,SSW,208,4.0,4.0,45,0.00,,,0.00,VWS V14.00,2013-08-11 20:36:00,
2013-08-11 16:41:00,73.9,51.9,30.25,WSW,257,2.7,2.7,46,0.00,,,0.00,VWS V14.00,2013-08-11 20:41:00,
2013-08-11 16:47:00,73.8,51.7,30.25,WSW,238,3.6,3.6,46,0.00,,,0.00,VWS V14.00,2013-08-11 20:47:00,
2013-08-11 16:52:00,73.6,52.1,30.25,WSW,250,0.0,2.7,47,0.00,,,0.00,VWS V14.00,2013-08-11 20:52:00,
2013-08-11 16:58:00,73.2,51.8,30.25,NNW,341,0.0,4.9,47,0.00,,,0.00,VWS V14.00,2013-08-11 20:58:00,
2013-08-11 17:03:00,72.9,52.0,30.25,WSW,248,3.6,3.6,48,0.00,,,0.00,VWS V14.00,2013-08-11 21:03:00,
2013-08-11 17:08:00,72.7,51.9,30.25,WNW,300,3.6,3.6,48,0.00,,,0.00,VWS V14.00,2013-08-11 21:08:00,
2013-08-11 17:16:00,72.5,52.3,30.25,WSW,256,3.6,3.6,49,0.00,,,0.00,VWS V14.00,2013-08-11 21:16:00,
2013-08-11 17:21:00,72.1,52.5,30.25,WSW,244,3.6,3.6,50,0.00,,,0.00,VWS V14.00,2013-08-11 21:21:00,
2013-08-11 17:27:00,72.0,51.8,30.25,WNW,291,4.9,4.9,49,0.00,,,0.00,VWS V14.00,2013-08-11 21:27:00,
2013-08-11 17:32:00,71.8,51.6,30.25,West,280,2.7,2.7,49,0.00,,,0.00,VWS V14.00,2013-08-11 21:32:00,
2013-08-11 17:38:00,71.6,51.5,30.25,WNW,284,4.0,4.0,49,0.00,,,0.00,VWS V14.00,2013-08-11 21:38:00,
2013-08-11 17:43:00,71.4,51.8,30.25,WSW,243,2.7,4.9,50,0.00,,,0.00,VWS V14.00,2013-08-11 21:43:00,
2013-08-11 17:49:00,71.2,51.7,30.25,SSW,199,3.1,3.1,50,0.00,,,0.00,VWS V14.00,2013-08-11 21:49:00,
2013-08-11 17:54:00,70.9,51.9,30.25,SW,216,3.1,3.1,51,0.00,,,0.00,VWS V14.00,2013-08-11 21:54:00,
2013-08-11 18:01:00,70.7,51.7,30.25,SW,227,2.7,3.1,51,0.00,,,0.00,VWS V14.00,2013-08-11 22:01:00,
2013-08-11 18:07:00,70.7,52.2,30.25,SSW,209,5.4,5.4,52,0.00,,,0.00,VWS V14.00,2013-08-11 22:07:00,
2013-08-11 18:13:00,70.7,52.2,30.25,SW,233,0.0,0.0,52,0.00,,,0.00,VWS V14.00,2013-08-11 22:13:00,
2013-08-11 18:19:00,70.7,52.2,30.25,WSW,241,2.2,2.2,52,0.00,,,0.00,VWS V14.00,2013-08-11 22:19:00,
2013-08-11 18:24:00,70.7,52.8,30.25,SSW,210,0.0,0.0,53,0.00,,,0.00,VWS V14.00,2013-08-11 22:24:00,
2013-08-11 18:29:00,70.7,52.8,30.25,SW,236,0.0,0.0,53,0.00,,,0.00,VWS V14.00,2013-08-11 22:29:00,
2013-08-11 18:35:00,70.7,53.3,30.25,SW,235,0.0,0.0,54,0.00,,,0.00,VWS V14.00,2013-08-11 22:35:00,
2013-08-11 18:40:00,70.7,53.3,30.25,SW,235,0.0,0.0,54,0.00,,,0.00,VWS V14.00,2013-08-11 22:40:00,
2013-08-11 18:45:00,70.7,52.8,30.25,WSW,239,0.0,0.0,53,0.00,,,0.00,VWS V14.00,2013-08-11 22:45:00,
2013-08-11 18:51:00,70.7,53.3,30.25,WSW,239,0.0,0.0,54,0.00,,,0.00,VWS V14.00,2013-08-11 22:51:00,
2013-08-11 18:56:00,70.9,52.9,30.25,WSW,239,0.0,0.0,53,0.00,,,0.00,VWS V14.00,2013-08-11 22:56:00,
2013-08-11 19:02:00,70.9,52.9,30.25,WSW,240,0.0,0.0,53,0.00,,,0.00,VWS V14.00,2013-08-11 23:02:00,
2013-08-11 19:07:00,70.9,52.9,30.25,WSW,239,0.0,0.0,53,0.00,,,0.00,VWS V14.00,2013-08-11 23:07:00,
2013-08-11 19:14:00,70.9,53.4,30.25,WSW,239,0.0,0.0,54,0.00,,,0.00,VWS V14.00,2013-08-11 23:14:00,
2013-08-11 19:19:00,70.9,53.4,30.25,WSW,239,0.0,0.0,54,0.00,,,0.00,VWS V14.00,2013-08-11 23:19:00,
2013-08-11 19:26:00,70.7,53.3,30.19,WSW,240,0.0,0.0,54,0.00,,,0.00,VWS V14.00,2013-08-11 23:26:00,
2013-08-11 19:32:00,70.7,53.8,30.19,WSW,239,2.7,2.7,55,0.00,,,0.00,VWS V14.00,2013-08-11 23:32:00,
2013-08-11 19:38:00,70.5,53.1,30.19,WSW,240,0.0,0.0,54,0.00,,,0.00,VWS V14.00,2013-08-11 23:38:00,
2013-08-11 19:43:00,70.5,53.6,30.19,WSW,240,0.0,0.0,55,0.00,,,0.00,VWS V14.00,2013-08-11 23:43:00,
2013-08-11 19:49:00,70.5,53.6,30.19,WSW,240,0.0,0.0,55,0.00,,,0.00,VWS V14.00,2013-08-11 23:49:00,
2013-08-11 19:57:00,70.3,53.9,30.19,WSW,240,0.0,0.0,56,0.00,,,0.00,VWS V14.00,2013-08-11 23:57:00,
2013-08-11 20:02:00,70.3,53.9,30.19,WSW,240,0.0,0.0,56,0.00,,,0.00,VWS V14.00,2013-08-12 00:02:00,
2013-08-11 20:07:00,70.2,53.8,30.19,WSW,240,0.0,0.0,56,0.00,,,0.00,VWS V14.00,2013-08-12 00:07:00,
2013-08-11 20:12:00,70.2,54.2,30.19,WSW,239,0.0,0.0,57,0.00,,,0.00,VWS V14.00,2013-08-12 00:12:00,
2013-08-11 20:18:00,70.0,54.5,30.19,WSW,240,0.0,0.0,58,0.00,,,0.00,VWS V14.00,2013-08-12 00:18:00,
2013-08-11 20:24:00,70.0,55.0,30.19,WSW,239,0.0,0.0,59,0.00,,,0.00,VWS V14.00,2013-08-12 00:24:00,
2013-08-11 20:29:00,69.8,54.8,30.19,WSW,240,0.0,0.0,59,0.00,,,0.00,VWS V14.00,2013-08-12 00:29:00,
2013-08-11 20:35:00,69.8,55.8,30.19,WSW,240,0.0,0.0,61,0.00,,,0.00,VWS V14.00,2013-08-12 00:35:00,
2013-08-11 20:40:00,69.6,56.0,30.19,WSW,240,0.0,0.0,62,0.00,,,0.00,VWS V14.00,2013-08-12 00:40:00,
2013-08-11 20:46:00,69.4,55.9,30.19,WSW,240,0.0,0.0,62,0.00,,,0.00,VWS V14.00,2013-08-12 00:46:00,
2013-08-11 20:51:00,69.3,55.7,30.19,WSW,240,0.0,0.0,62,0.00,,,0.00,VWS V14.00,2013-08-12 00:51:00,
2013-08-11 20:56:00,69.3,56.1,30.19,WSW,239,0.0,0.0,63,0.00,,,0.00,VWS V14.00,2013-08-12 00:56:00,
2013-08-11 21:02:00,69.3,56.6,30.19,WSW,239,0.0,0.0,64,0.00,,,0.00,VWS V14.00,2013-08-12 01:02:00,
2013-08-11 21:08:00,69.1,56.4,30.19,WSW,240,0.0,0.0,64,0.00,,,0.00,VWS V14.00,2013-08-12 01:08:00,
2013-08-11 21:13:00,69.1,56.8,30.19,WSW,240,0.0,0.0,65,0.00,,,0.00,VWS V14.00,2013-08-12 01:13:00,
2013-08-11 21:19:00,68.9,56.7,30.19,WSW,240,0.0,0.0,65,0.00,,,0.00,VWS V14.00,2013-08-12 01:19:00,
2013-08-11 21:24:00,68.9,56.7,30.19,WSW,239,0.0,0.0,65,0.00,,,0.00,VWS V14.00,2013-08-12 01:24:00,
2013-08-11 21:31:00,68.7,56.5,30.19,WSW,239,0.0,0.0,65,0.00,,,0.00,VWS V14.00,2013-08-12 01:31:00,
2013-08-11 21:37:00,68.7,56.5,30.19,WSW,239,0.0,0.0,65,0.00,,,0.00,VWS V14.00,2013-08-12 01:37:00,
2013-08-11 21:42:00,68.7,56.9,30.19,WSW,240,0.0,0.0,66,0.00,,,0.00,VWS V14.00,2013-08-12 01:42:00,
2013-08-11 21:48:00,68.7,56.9,30.19,WSW,239,0.0,0.0,66,0.00,,,0.00,VWS V14.00,2013-08-12 01:48:00,
2013-08-11 21:54:00,68.7,56.9,30.19,WSW,240,0.0,0.0,66,0.00,,,0.00,VWS V14.00,2013-08-12 01:54:00,
2013-08-11 21:59:00,68.5,56.7,30.19,WSW,240,0.0,0.0,66,0.00,,,0.00,VWS V14.00,2013-08-12 01:59:00,
2013-08-11 22:05:00,68.5,57.2,30.19,WSW,239,0.0,0.0,67,0.00,,,0.00,VWS V14.00,2013-08-12 02:05:00,
2013-08-11 22:11:00,68.5,57.2,30.19,WSW,239,0.0,0.0,67,0.00,,,0.00,VWS V14.00,2013-08-12 02:11:00,
2013-08-11 22:16:00,68.5,57.2,30.19,WSW,239,0.0,0.0,67,0.00,,,0.00,VWS V14.00,2013-08-12 02:16:00,
2013-08-11 22:23:00,68.5,57.6,30.19,WSW,239,0.0,0.0,68,0.00,,,0.00,VWS V14.00,2013-08-12 02:23:00,
2013-08-11 22:28:00,68.4,57.8,30.19,WSW,239,0.0,0.0,69,0.00,,,0.00,VWS V14.00,2013-08-12 02:28:00,
2013-08-11 22:34:00,68.4,57.8,30.19,WSW,240,0.0,0.0,69,0.00,,,0.00,VWS V14.00,2013-08-12 02:34:00,
2013-08-11 22:40:00,68.2,57.2,30.19,WSW,240,0.0,0.0,68,0.00,,,0.00,VWS V14.00,2013-08-12 02:40:00,
2013-08-11 22:45:00,68.2,57.2,30.19,WSW,240,0.0,0.0,68,0.00,,,0.00,VWS V14.00,2013-08-12 02:45:00,
2013-08-11 22:53:00,68.2,57.2,30.19,WSW,239,0.0,0.0,68,0.00,,,0.00,VWS V14.00,2013-08-12 02:53:00,
2013-08-11 22:58:00,68.2,57.2,30.19,WSW,239,0.0,0.0,68,0.00,,,0.00,VWS V14.00,2013-08-12 02:58:00,
2013-08-11 23:04:00,68.2,57.6,30.19,WSW,240,0.0,0.0,69,0.00,,,0.00,VWS V14.00,2013-08-12 03:04:00,
2013-08-11 23:09:00,68.0,57.9,30.19,WSW,239,0.0,0.0,70,0.00,,,0.00,VWS V14.00,2013-08-12 03:09:00,
2013-08-11 23:15:00,67.8,57.7,30.19,WSW,240,0.0,0.0,70,0.00,,,0.00,VWS V14.00,2013-08-12 03:15:00,
2013-08-11 23:21:00,67.8,58.1,30.19,WSW,239,0.0,0.0,71,0.00,,,0.00,VWS V14.00,2013-08-12 03:21:00,
2013-08-11 23:26:00,67.8,57.7,30.19,WSW,239,0.0,0.0,70,0.00,,,0.00,VWS V14.00,2013-08-12 03:26:00,
2013-08-11 23:32:00,67.8,57.7,30.19,WSW,240,0.0,0.0,70,0.00,,,0.00,VWS V14.00,2013-08-12 03:32:00,
2013-08-11 23:37:00,67.8,58.1,30.19,WSW,240,0.0,0.0,71,0.00,,,0.00,VWS V14.00,2013-08-12 03:37:00,
2013-08-11 23:42:00,67.8,58.1,30.19,WSW,240,0.0,0.0,71,0.00,,,0.00,VWS V14.00,2013-08-12 03:42:00,
2013-08-11 23:47:00,67.8,58.5,30.19,WSW,239,0.0,0.0,72,0.00,,,0.00,VWS V14.00,2013-08-12 03:47:00,
2013-08-11 23:53:00,67.8,58.9,30.19,WSW,239,0.0,0.0,73,0.00,,,0.00,VWS V14.00,2013-08-12 03:53:00,